Felix-Klein-Gymnasium, Gttingen, 150m NN
Donnes mto: Actuelle Montag, 01.05.2017 00:00
Date Horaire Temp. E. Hum. E. P.atmo. Pluie Vent Direction Direction Ensoleilleme P. de rose Temp au vent Rafales
01.05.2017 00:00 11,1 C 56 % 1008,7 hPa 0,0 mm 13,7 km/h (3 Bft) E-SE 121 0 min 2,7 C 11,1 C 25,7 km/h (4 Bft)
30.04.2017 22:45 12,2 C 47 % 1009,0 hPa 0,0 mm 8,7 km/h (2 Bft) S-SE 166 0 min 1,2 C 12,2 C 24,1 km/h (4 Bft)
30.04.2017 22:30 12,4 C 46 % 1008,9 hPa 0,0 mm 12,5 km/h (3 Bft) E-SE 121 0 min 1,1 C 12,4 C 29,0 km/h (5 Bft)
30.04.2017 22:15 12,7 C 45 % 1008,9 hPa 0,0 mm 15,9 km/h (3 Bft) SE 132 0 min 1,1 C 12,7 C 33,8 km/h (5 Bft)
30.04.2017 22:00 12,8 C 45 % 1008,7 hPa 0,0 mm 17,5 km/h (3 Bft) S-SE 157 0 min 1,2 C 12,8 C 32,2 km/h (5 Bft)
30.04.2017 21:45 12,9 C 44 % 1008,8 hPa 0,0 mm 15,4 km/h (3 Bft) SE 145 0 min 1,0 C 12,9 C 30,6 km/h (5 Bft)
30.04.2017 21:30 13,1 C 43 % 1008,7 hPa 0,0 mm 16,1 km/h (3 Bft) E 101 0 min 0,8 C 13,1 C 30,6 km/h (5 Bft)
30.04.2017 21:15 13,2 C 43 % 1008,7 hPa 0,0 mm 13,5 km/h (3 Bft) SE 132 0 min 0,9 C 13,2 C 27,4 km/h (4 Bft)
30.04.2017 21:00 13,3 C 42 % 1008,6 hPa 0,0 mm 13,8 km/h (3 Bft) SE 139 0 min 0,7 C 13,3 C 27,4 km/h (4 Bft)
30.04.2017 20:45 13,6 C 41 % 1008,6 hPa 0,0 mm 15,0 km/h (3 Bft) S-SE 153 0 min 0,6 C 13,6 C 30,6 km/h (5 Bft)
30.04.2017 20:30 13,8 C 40 % 1008,6 hPa 0,0 mm 20,3 km/h (4 Bft) SE 139 0 min 0,4 C 13,8 C 38,6 km/h (5 Bft)
30.04.2017 20:15 14,0 C 40 % 1008,7 hPa 0,0 mm 18,0 km/h (3 Bft) E-SE 123 0 min 0,6 C 14,0 C 33,8 km/h (5 Bft)
30.04.2017 20:00 14,2 C 39 % 1008,6 hPa 0,0 mm 19,0 km/h (3 Bft) SE 137 0 min 0,5 C 14,2 C 38,6 km/h (5 Bft)
30.04.2017 19:45 14,4 C 38 % 1008,6 hPa 0,0 mm 19,3 km/h (3 Bft) SE 137 0 min 0,3 C 14,4 C 40,2 km/h (6 Bft)
30.04.2017 19:30 14,6 C 39 % 1008,6 hPa 0,0 mm 21,3 km/h (4 Bft) SE 130 0 min 0,8 C 14,6 C 43,5 km/h (6 Bft)
30.04.2017 19:15 14,7 C 39 % 1008,5 hPa 0,0 mm 19,2 km/h (3 Bft) E 91 15 min 0,9 C 14,7 C 40,2 km/h (6 Bft)
30.04.2017 19:00 14,8 C 39 % 1008,8 hPa 0,0 mm 17,8 km/h (3 Bft) SE 138 15 min 1,0 C 14,8 C 40,2 km/h (6 Bft)
30.04.2017 18:45 14,8 C 39 % 1009,1 hPa 0,0 mm 23,4 km/h (4 Bft) SE 124 15 min 1,0 C 14,8 C 41,8 km/h (6 Bft)
30.04.2017 18:30 14,9 C 39 % 1009,2 hPa 0,0 mm 21,5 km/h (4 Bft) SE 136 15 min 1,1 C 14,9 C 40,2 km/h (6 Bft)
30.04.2017 18:15 15,1 C 40 % 1009,3 hPa 0,0 mm 19,3 km/h (3 Bft) SE 145 15 min 1,6 C 15,1 C 33,8 km/h (5 Bft)
30.04.2017 18:00 15,0 C 39 % 1009,5 hPa 0,0 mm 16,6 km/h (3 Bft) E-SE 123 15 min 1,2 C 15,0 C 41,8 km/h (6 Bft)
30.04.2017 17:45 15,2 C 40 % 1009,7 hPa 0,0 mm 17,1 km/h (3 Bft) S-SE 156 15 min 1,7 C 15,2 C 35,4 km/h (5 Bft)
30.04.2017 17:30 15,1 C 40 % 1009,9 hPa 0,0 mm 19,6 km/h (3 Bft) SE 145 15 min 1,6 C 15,1 C 41,8 km/h (6 Bft)
30.04.2017 17:15 15,0 C 40 % 1010,1 hPa 0,0 mm 18,9 km/h (3 Bft) SE 143 15 min 1,5 C 15,0 C 40,2 km/h (6 Bft)
30.04.2017 17:00 15,2 C 39 % 1010,3 hPa 0,0 mm 19,3 km/h (3 Bft) SE 129 15 min 1,3 C 15,2 C 37,0 km/h (5 Bft)
30.04.2017 16:45 15,1 C 39 % 1010,5 hPa 0,0 mm 17,5 km/h (3 Bft) NE 56 15 min 1,3 C 15,1 C 43,5 km/h (6 Bft)
30.04.2017 16:30 15,4 C 39 % 1010,6 hPa 0,0 mm 16,6 km/h (3 Bft) SE 140 15 min 1,5 C 15,4 C 33,8 km/h (5 Bft)
30.04.2017 16:15 14,9 C 39 % 1011,0 hPa 0,0 mm 20,5 km/h (4 Bft) SE 142 15 min 1,1 C 14,9 C 38,6 km/h (5 Bft)
30.04.2017 16:00 15,2 C 38 % 1011,2 hPa 0,0 mm 16,2 km/h (3 Bft) SE 136 15 min 1,0 C 15,2 C 33,8 km/h (5 Bft)
30.04.2017 15:45 15,3 C 38 % 1011,3 hPa 0,0 mm 16,7 km/h (3 Bft) S 170 15 min 1,1 C 15,3 C 33,8 km/h (5 Bft)
30.04.2017 15:30 14,8 C 39 % 1011,5 hPa 0,0 mm 19,8 km/h (3 Bft) SE 142 15 min 1,0 C 14,8 C 43,5 km/h (6 Bft)
30.04.2017 15:15 14,8 C 38 % 1011,8 hPa 0,0 mm 17,7 km/h (3 Bft) SE 139 15 min 0,6 C 14,8 C 40,2 km/h (6 Bft)
30.04.2017 15:00 14,9 C 38 % 1012,1 hPa 0,0 mm 16,2 km/h (3 Bft) SE 145 15 min 0,7 C 14,9 C 38,6 km/h (5 Bft)
30.04.2017 14:45 14,6 C 39 % 1012,3 hPa 0,0 mm 17,0 km/h (3 Bft) E-SE 105 15 min 0,8 C 14,6 C 37,0 km/h (5 Bft)
30.04.2017 14:30 14,7 C 38 % 1012,4 hPa 0,0 mm 14,2 km/h (3 Bft) SE 127 15 min 0,5 C 14,7 C 41,8 km/h (6 Bft)
30.04.2017 14:15 14,4 C 40 % 1012,7 hPa 0,0 mm 17,0 km/h (3 Bft) SE 139 15 min 1,0 C 14,4 C 35,4 km/h (5 Bft)
30.04.2017 14:00 14,2 C 39 % 1012,9 hPa 0,0 mm 16,5 km/h (3 Bft) SE 136 15 min 0,5 C 14,2 C 32,2 km/h (5 Bft)
30.04.2017 13:45 14,1 C 39 % 1013,2 hPa 0,0 mm 17,0 km/h (3 Bft) E-SE 107 15 min 0,4 C 14,1 C 35,4 km/h (5 Bft)
30.04.2017 13:30 14,0 C 38 % 1013,3 hPa 0,0 mm 15,6 km/h (3 Bft) S-SE 168 0 min -0,1 C 14,0 C 43,5 km/h (6 Bft)
30.04.2017 13:15 14,2 C 41 % 1013,5 hPa 0,0 mm 11,7 km/h (2 Bft) S 180 15 min 1,1 C 14,2 C 32,2 km/h (5 Bft)
30.04.2017 13:00 13,7 C 42 % 1013,7 hPa 0,0 mm 17,2 km/h (3 Bft) S-SO 193 15 min 1,0 C 13,7 C 37,0 km/h (5 Bft)
30.04.2017 12:45 13,2 C 41 % 1013,8 hPa 0,0 mm 18,0 km/h (3 Bft) S-SE 156 15 min 0,2 C 13,2 C 33,8 km/h (5 Bft)
30.04.2017 12:30 13,2 C 43 % 1014,1 hPa 0,0 mm 17,9 km/h (3 Bft) N 11 15 min 0,9 C 13,2 C 41,8 km/h (6 Bft)
30.04.2017 12:15 12,8 C 43 % 1014,3 hPa 0,0 mm 16,9 km/h (3 Bft) SE 139 15 min 0,5 C 12,8 C 35,4 km/h (5 Bft)
30.04.2017 12:00 12,8 C 44 % 1014,6 hPa 0,0 mm 17,0 km/h (3 Bft) SE 130 15 min 0,9 C 12,8 C 33,8 km/h (5 Bft)
30.04.2017 11:45 12,7 C 43 % 1014,8 hPa 0,0 mm 15,6 km/h (3 Bft) S-SE 149 15 min 0,5 C 12,7 C 38,6 km/h (5 Bft)
30.04.2017 11:30 12,3 C 44 % 1014,8 hPa 0,0 mm 17,9 km/h (3 Bft) SE 128 15 min 0,4 C 12,3 C 33,8 km/h (5 Bft)
30.04.2017 11:15 11,8 C 43 % 1015,2 hPa 0,0 mm 19,4 km/h (3 Bft) SE 124 15 min -0,4 C 11,8 C 38,6 km/h (5 Bft)
30.04.2017 11:00 11,8 C 43 % 1015,3 hPa 0,0 mm 19,3 km/h (3 Bft) S-SE 162 15 min -0,4 C 11,8 C 40,2 km/h (6 Bft)
30.04.2017 10:45 11,7 C 46 % 1015,5 hPa 0,0 mm 12,8 km/h (3 Bft) E-SE 118 15 min 0,5 C 11,7 C 30,6 km/h (5 Bft)
30.04.2017 10:30 10,7 C 48 % 1015,7 hPa 0,0 mm 20,1 km/h (4 Bft) S-SE 148 0 min 0,1 C 10,7 C 35,4 km/h (5 Bft)
30.04.2017 10:15 10,8 C 50 % 1015,9 hPa 0,0 mm 14,8 km/h (3 Bft) S-SE 155 15 min 0,8 C 10,8 C 35,4 km/h (5 Bft)
30.04.2017 10:00 10,3 C 52 % 1016,0 hPa 0,0 mm 10,9 km/h (2 Bft) SE 145 15 min 0,9 C 10,3 C 29,0 km/h (5 Bft)
30.04.2017 09:45 10,2 C 55 % 1016,1 hPa 0,0 mm 7,3 km/h (2 Bft) SE 139 15 min 1,6 C 10,2 C 20,9 km/h (4 Bft)
30.04.2017 09:30 9,1 C 61 % 1016,3 hPa 0,0 mm 1,8 km/h (1 Bft) S-SO 213 15 min 2,0 C 9,1 C 8,0 km/h (2 Bft)
30.04.2017 09:15 7,2 C 67 % 1016,4 hPa 0,0 mm 0,4 km/h (0 Bft) O 259 15 min 1,5 C 7,2 C 4,8 km/h (1 Bft)
30.04.2017 09:00 5,8 C 71 % 1016,5 hPa 0,0 mm 0,6 km/h (0 Bft) O-NO 295 15 min 1,0 C 5,8 C 4,8 km/h (1 Bft)
30.04.2017 08:45 5,2 C 73 % 1016,6 hPa 0,0 mm 0,0 km/h (0 Bft) S-SO 195 15 min 0,8 C 5,2 C 1,6 km/h (1 Bft)
30.04.2017 08:30 4,2 C 77 % 1016,7 hPa 0,0 mm 0,3 km/h (0 Bft) S-SO 194 15 min 0,5 C 4,2 C 4,8 km/h (1 Bft)
30.04.2017 08:15 3,4 C 79 % 1016,8 hPa 0,0 mm 0,4 km/h (0 Bft) S 189 15 min 0,1 C 3,4 C 4,8 km/h (1 Bft)
30.04.2017 08:00 2,4 C 82 % 1016,9 hPa 0,0 mm 0,1 km/h (0 Bft) S 189 15 min -0,4 C 2,4 C 3,2 km/h (1 Bft)
30.04.2017 07:45 1,8 C 84 % 1016,9 hPa 0,0 mm 0,0 km/h (0 Bft) S 189 15 min -0,6 C 1,8 C 1,6 km/h (1 Bft)
30.04.2017 07:30 1,2 C 87 % 1016,9 hPa 0,0 mm 0,0 km/h (0 Bft) S-SO 199 15 min -0,7 C 1,2 C 1,6 km/h (1 Bft)
30.04.2017 07:15 0,3 C 89 % 1017,0 hPa 0,0 mm 0,0 km/h (0 Bft) S-SO 203 15 min -1,3 C 0,3 C 3,2 km/h (1 Bft)
30.04.2017 07:00 -0,2 C 90 % 1016,9 hPa 0,0 mm 0,3 km/h (0 Bft) SO 214 0 min -1,6 C -0,2 C 3,2 km/h (1 Bft)
30.04.2017 06:45 -0,7 C 91 % 1016,9 hPa 0,0 mm 0,5 km/h (0 Bft) SO 216 0 min -2,0 C -0,7 C 4,8 km/h (1 Bft)
30.04.2017 06:30 -1,0 C 91 % 1016,9 hPa 0,0 mm 0,3 km/h (0 Bft) S-SE 156 0 min -2,3 C -1,0 C 4,8 km/h (1 Bft)
30.04.2017 06:15 -1,1 C 91 % 1017,0 hPa 0,0 mm 1,0 km/h (0 Bft) S-SE 154 0 min -2,4 C -1,1 C 6,4 km/h (2 Bft)
30.04.2017 06:00 -1,1 C 90 % 1017,0 hPa 0,0 mm 1,0 km/h (0 Bft) SO 218 0 min -2,5 C -1,1 C 4,8 km/h (1 Bft)
30.04.2017 05:45 -0,9 C 90 % 1016,9 hPa 0,0 mm 1,3 km/h (1 Bft) SO 218 0 min -2,3 C -0,9 C 4,8 km/h (1 Bft)
30.04.2017 05:30 -0,8 C 90 % 1017,0 hPa 0,0 mm 1,0 km/h (0 Bft) SO 218 0 min -2,2 C -0,8 C 4,8 km/h (1 Bft)
30.04.2017 05:15 -0,9 C 90 % 1016,9 hPa 0,0 mm 1,0 km/h (0 Bft) SO 218 0 min -2,3 C -0,9 C 3,2 km/h (1 Bft)
30.04.2017 05:00 -0,9 C 90 % 1017,0 hPa 0,0 mm 0,9 km/h (0 Bft) SO 218 0 min -2,3 C -0,9 C 4,8 km/h (1 Bft)
30.04.2017 04:45 -0,8 C 90 % 1017,0 hPa 0,0 mm 0,9 km/h (0 Bft) SO 218 0 min -2,2 C -0,8 C 3,2 km/h (1 Bft)
30.04.2017 04:30 -0,7 C 89 % 1017,0 hPa 0,0 mm 0,5 km/h (0 Bft) SO 218 0 min -2,3 C -0,7 C 3,2 km/h (1 Bft)
30.04.2017 04:15 -0,5 C 89 % 1017,0 hPa 0,0 mm 0,9 km/h (0 Bft) SO 218 0 min -2,1 C -0,5 C 4,8 km/h (1 Bft)
30.04.2017 04:00 -0,2 C 89 % 1017,0 hPa 0,0 mm 0,4 km/h (0 Bft) SO 221 0 min -1,8 C -0,2 C 3,2 km/h (1 Bft)
30.04.2017 03:45 0,1 C 88 % 1017,0 hPa 0,0 mm 0,3 km/h (0 Bft) SO 220 0 min -1,6 C 0,1 C 4,8 km/h (1 Bft)
30.04.2017 03:30 0,2 C 87 % 1016,9 hPa 0,0 mm 0,1 km/h (0 Bft) SO 220 0 min -1,7 C 0,2 C 3,2 km/h (1 Bft)
30.04.2017 03:15 0,4 C 87 % 1017,0 hPa 0,0 mm 0,1 km/h (0 Bft) SO 220 0 min -1,5 C 0,4 C 1,6 km/h (1 Bft)
30.04.2017 03:00 0,4 C 87 % 1017,1 hPa 0,0 mm 0,0 km/h (0 Bft) SO 220 0 min -1,5 C 0,4 C 1,6 km/h (1 Bft)
30.04.2017 02:45 0,6 C 86 % 1017,1 hPa 0,0 mm 0,0 km/h (0 Bft) SO 220 0 min -1,5 C 0,6 C 1,6 km/h (1 Bft)
30.04.2017 02:30 0,7 C 86 % 1017,1 hPa 0,0 mm 0,0 km/h (0 Bft) SO 220 0 min -1,4 C 0,7 C 1,6 km/h (1 Bft)
30.04.2017 02:15 0,9 C 85 % 1017,1 hPa 0,0 mm 0,0 km/h (0 Bft) SO 220 0 min -1,3 C 0,9 C 1,6 km/h (1 Bft)
30.04.2017 02:00 1,1 C 85 % 1017,0 hPa 0,0 mm 0,0 km/h (0 Bft) SO 220 0 min -1,1 C 1,1 C 0,0 km/h (0 Bft)
30.04.2017 01:45 1,2 C 85 % 1017,0 hPa 0,0 mm 0,0 km/h (0 Bft) SO 220 0 min -1,0 C 1,2 C 0,0 km/h (0 Bft)
30.04.2017 01:30 1,5 C 84 % 1016,9 hPa 0,0 mm 0,1 km/h (0 Bft) SO 220 0 min -0,9 C 1,5 C 3,2 km/h (1 Bft)
30.04.2017 01:15 1,7 C 83 % 1017,0 hPa 0,0 mm 0,0 km/h (0 Bft) S-SO 207 0 min -0,9 C 1,7 C 0,0 km/h (0 Bft)
30.04.2017 01:00 1,8 C 83 % 1017,1 hPa 0,0 mm 0,0 km/h (0 Bft) S-SO 207 0 min -0,8 C 1,8 C 0,0 km/h (0 Bft)
_ Min-Heure 06:00 13:30 19:15 - 01:00 - - - 06:00 06:00 01:00
Minimum _ -1,1 C 38 % 1008,5 hPa - 0,0 km/h (0 Bft) - - - -2,5 C -1,1 C 0,0 km/h (0 Bft)
_ Max-Heure 16:30 06:15 01:00 01:00 18:45 - - 07:15 00:00 16:30 13:30
Maximum _ 15,4 C 91 % 1017,1 hPa 0,0 mm 23,4 km/h
SE (4 Bft)
- - 15 min 2,7 C 15,4 C 43,5 km/h
S-SE (6 Bft)
Moyenne _ 8,6 C 59 % 1013,5 hPa #0,0 mm 10,2 km/h (2 Bft) SE - #0 min. 0,1 C 8,6 C 22,3 km/h (4 Bft)